JAL476 RJOT-RJTT
Flight info
| Callsign | JAL476 |
|---|---|
| Flight time | 0h 53m |
| Altitude | 33000 |
| Route | OLIVE HYOGO SANDA Y289 SHTLE Y71 XAC |
| Aircraft | B738/M-SDE2E3FGHIRWXY/LB1 |
Departure
| Time | 2026-05-05 02:47 |
|---|---|
| Airport | Takamatsu Airport (RJOT) |
Arrival
| Time | 2026-05-05 03:41 |
|---|---|
| Airport | Tokyo Haneda International Airport (RJTT) |
| Time | Latitude | Longitude | Altitude | Speed | Heading |
|---|---|---|---|---|---|
| 2026-05-05 02:21 | 34.21814 | 134.01984 | 606 ft | 0 kts | 343° |
| 2026-05-05 02:40 | 34.21803 | 134.01988 | 615 ft | 4 kts | 343° |
| 2026-05-05 02:40 | 34.21777 | 134.01998 | 617 ft | 4 kts | 342° |
| 2026-05-05 02:40 | 34.21753 | 134.02007 | 623 ft | 2 kts | 342° |
| 2026-05-05 02:40 | 34.21730 | 134.02014 | 614 ft | 4 kts | 355° |
| 2026-05-05 02:41 | 34.21705 | 134.02011 | 609 ft | 4 kts | 25° |
| 2026-05-05 02:41 | 34.21685 | 134.01992 | 607 ft | 4 kts | 63° |
| 2026-05-05 02:41 | 34.21681 | 134.01980 | 607 ft | 1 kts | 73° |
| 2026-05-05 02:43 | 34.21683 | 134.01989 | 607 ft | 4 kts | 73° |
| 2026-05-05 02:43 | 34.21704 | 134.02072 | 615 ft | 15 kts | 73° |
| 2026-05-05 02:44 | 34.21736 | 134.02198 | 612 ft | 16 kts | 73° |
| 2026-05-05 02:44 | 34.21767 | 134.02319 | 604 ft | 15 kts | 72° |
| 2026-05-05 02:44 | 34.21797 | 134.02437 | 602 ft | 14 kts | 72° |
| 2026-05-05 02:44 | 34.21826 | 134.02549 | 601 ft | 14 kts | 72° |
| 2026-05-05 02:45 | 34.21855 | 134.02658 | 598 ft | 14 kts | 72° |
| 2026-05-05 02:45 | 34.21877 | 134.02759 | 594 ft | 12 kts | 85° |
| 2026-05-05 02:45 | 34.21825 | 134.02821 | 595 ft | 11 kts | 163° |
| 2026-05-05 02:45 | 34.21766 | 134.02844 | 597 ft | 7 kts | 163° |
| 2026-05-05 02:46 | 34.21738 | 134.02845 | 598 ft | 4 kts | 210° |
| 2026-05-05 02:46 | 34.21725 | 134.02820 | 599 ft | 4 kts | 248° |
| 2026-05-05 02:46 | 34.21722 | 134.02811 | 600 ft | 0 kts | 252° |
| 2026-05-05 02:46 | 34.21705 | 134.02744 | 601 ft | 33 kts | 253° |
| 2026-05-05 02:47 | 34.21564 | 134.02195 | 606 ft | 103 kts | 253° |
| 2026-05-05 02:47 | 34.21292 | 134.01133 | 625 ft | 160 kts | 253° |
| 2026-05-05 02:47 | 34.20952 | 133.99734 | 969 ft | 178 kts | 255° |
| 2026-05-05 02:47 | 34.20593 | 133.98302 | 1724 ft | 178 kts | 254° |
| 2026-05-05 02:48 | 34.20233 | 133.96870 | 2554 ft | 180 kts | 261° |
| 2026-05-05 02:48 | 34.20376 | 133.95363 | 3216 ft | 184 kts | 300° |
| 2026-05-05 02:48 | 34.21134 | 133.94159 | 3998 ft | 188 kts | 315° |
| 2026-05-05 02:48 | 34.22272 | 133.93218 | 4300 ft | 215 kts | 340° |
| 2026-05-05 02:49 | 34.23841 | 133.92965 | 4393 ft | 242 kts | 6° |
| 2026-05-05 02:49 | 34.25492 | 133.93503 | 4892 ft | 250 kts | 27° |
| 2026-05-05 02:49 | 34.27099 | 133.94580 | 5076 ft | 280 kts | 31° |
| 2026-05-05 02:49 | 34.28809 | 133.95740 | 5980 ft | 278 kts | 30° |
| 2026-05-05 02:50 | 34.30499 | 133.96856 | 6968 ft | 278 kts | 28° |
| 2026-05-05 02:50 | 34.32371 | 133.97468 | 7687 ft | 286 kts | 358° |
| 2026-05-05 02:50 | 34.34315 | 133.96973 | 8503 ft | 286 kts | 343° |
| 2026-05-05 02:50 | 34.36201 | 133.96293 | 9350 ft | 288 kts | 343° |
| 2026-05-05 02:51 | 34.38113 | 133.95604 | 10077 ft | 286 kts | 343° |
| 2026-05-05 02:51 | 34.40070 | 133.94917 | 10471 ft | 304 kts | 344° |
| 2026-05-05 02:51 | 34.42198 | 133.94259 | 10635 ft | 328 kts | 353° |
| 2026-05-05 02:51 | 34.44488 | 133.94606 | 11014 ft | 341 kts | 22° |
| 2026-05-05 02:52 | 34.46424 | 133.96269 | 11682 ft | 345 kts | 48° |
| 2026-05-05 02:52 | 34.47920 | 133.98553 | 12462 ft | 347 kts | 54° |
| 2026-05-05 02:52 | 34.49335 | 134.00940 | 13201 ft | 351 kts | 55° |
| 2026-05-05 02:52 | 34.50724 | 134.03336 | 13950 ft | 354 kts | 56° |
| 2026-05-05 02:53 | 34.52149 | 134.05786 | 14681 ft | 357 kts | 56° |
| 2026-05-05 02:53 | 34.53599 | 134.08259 | 15346 ft | 363 kts | 55° |
| 2026-05-05 02:53 | 34.55083 | 134.10767 | 15980 ft | 369 kts | 55° |
| 2026-05-05 02:53 | 34.56595 | 134.13307 | 16662 ft | 374 kts | 55° |
| 2026-05-05 02:54 | 34.58126 | 134.15872 | 17397 ft | 376 kts | 55° |
| 2026-05-05 02:54 | 34.59670 | 134.18454 | 18101 ft | 380 kts | 55° |
| 2026-05-05 02:54 | 34.61232 | 134.21068 | 18708 ft | 386 kts | 55° |
| 2026-05-05 02:54 | 34.62820 | 134.23726 | 19229 ft | 392 kts | 54° |
| 2026-05-05 02:55 | 34.64414 | 134.26395 | 19716 ft | 399 kts | 54° |
| 2026-05-05 02:55 | 34.66054 | 134.29143 | 20227 ft | 405 kts | 54° |
| 2026-05-05 02:55 | 34.67714 | 134.31928 | 20756 ft | 410 kts | 53° |
| 2026-05-05 02:55 | 34.69395 | 134.34749 | 21353 ft | 413 kts | 53° |
| 2026-05-05 02:56 | 34.71087 | 134.37591 | 21850 ft | 419 kts | 52° |
| 2026-05-05 02:56 | 34.72811 | 134.40486 | 22304 ft | 426 kts | 52° |
| 2026-05-05 02:56 | 34.74492 | 134.43481 | 22754 ft | 433 kts | 58° |
| 2026-05-05 02:56 | 34.75791 | 134.46761 | 23207 ft | 440 kts | 68° |
| 2026-05-05 02:57 | 34.76659 | 134.50348 | 23685 ft | 446 kts | 76° |
| 2026-05-05 02:57 | 34.77353 | 134.54045 | 24124 ft | 450 kts | 77° |
| 2026-05-05 02:57 | 34.78023 | 134.57784 | 24549 ft | 455 kts | 77° |
| 2026-05-05 02:57 | 34.78703 | 134.61562 | 24903 ft | 460 kts | 77° |
| 2026-05-05 02:58 | 34.79403 | 134.65383 | 25200 ft | 467 kts | 77° |
| 2026-05-05 02:58 | 34.80128 | 134.69261 | 25522 ft | 473 kts | 77° |
| 2026-05-05 02:58 | 34.80865 | 134.73161 | 25907 ft | 477 kts | 77° |
| 2026-05-05 02:58 | 34.81604 | 134.77053 | 26280 ft | 481 kts | 77° |
| 2026-05-05 02:59 | 34.82361 | 134.81037 | 26650 ft | 485 kts | 77° |
| 2026-05-05 02:59 | 34.83120 | 134.85046 | 27083 ft | 487 kts | 77° |
| 2026-05-05 02:59 | 34.83882 | 134.89079 | 27443 ft | 491 kts | 77° |
| 2026-05-05 02:59 | 34.84649 | 134.93151 | 27738 ft | 496 kts | 77° |
| 2026-05-05 03:00 | 34.85422 | 134.97267 | 28054 ft | 501 kts | 77° |
| 2026-05-05 03:00 | 34.86205 | 135.01416 | 28356 ft | 505 kts | 77° |
| 2026-05-05 03:00 | 34.87023 | 135.05605 | 28599 ft | 511 kts | 77° |
| 2026-05-05 03:00 | 34.87863 | 135.09825 | 28915 ft | 515 kts | 77° |
| 2026-05-05 03:01 | 34.88691 | 135.14019 | 29248 ft | 518 kts | 78° |
| 2026-05-05 03:01 | 34.89196 | 135.18348 | 29543 ft | 520 kts | 89° |
| 2026-05-05 03:01 | 34.89132 | 135.22740 | 29835 ft | 520 kts | 97° |
| 2026-05-05 03:01 | 34.88875 | 135.27141 | 30160 ft | 522 kts | 98° |
| 2026-05-05 03:02 | 34.88587 | 135.31560 | 30399 ft | 526 kts | 98° |
| 2026-05-05 03:02 | 34.88300 | 135.36012 | 30664 ft | 528 kts | 98° |
| 2026-05-05 03:02 | 34.88000 | 135.40494 | 30755 ft | 535 kts | 99° |
| 2026-05-05 03:02 | 34.87729 | 135.44969 | 30905 ft | 540 kts | 98° |
| 2026-05-05 03:03 | 34.87484 | 135.49537 | 31158 ft | 540 kts | 98° |
| 2026-05-05 03:03 | 34.87254 | 135.54096 | 31360 ft | 538 kts | 98° |
| 2026-05-05 03:03 | 34.87026 | 135.58638 | 31610 ft | 536 kts | 98° |
| 2026-05-05 03:03 | 34.86796 | 135.63145 | 31894 ft | 533 kts | 98° |
| 2026-05-05 03:04 | 34.86560 | 135.67646 | 32187 ft | 532 kts | 98° |
| 2026-05-05 03:04 | 34.86317 | 135.72131 | 32412 ft | 531 kts | 99° |
| 2026-05-05 03:04 | 34.86064 | 135.76631 | 32655 ft | 534 kts | 98° |
| 2026-05-05 03:04 | 34.85824 | 135.81167 | 32895 ft | 537 kts | 99° |
| 2026-05-05 03:05 | 34.85575 | 135.85649 | 33118 ft | 540 kts | 99° |
| 2026-05-05 03:05 | 34.85047 | 135.94824 | 33195 ft | 542 kts | 99° |
| 2026-05-05 03:06 | 34.84523 | 136.03926 | 33205 ft | 537 kts | 99° |
| 2026-05-05 03:06 | 34.83998 | 136.12976 | 33178 ft | 535 kts | 99° |
| 2026-05-05 03:07 | 34.83461 | 136.22025 | 33212 ft | 545 kts | 99° |
| 2026-05-05 03:07 | 34.82915 | 136.31203 | 33191 ft | 543 kts | 99° |
| 2026-05-05 03:08 | 34.82366 | 136.40357 | 33180 ft | 541 kts | 99° |
| 2026-05-05 03:08 | 34.81812 | 136.49463 | 33187 ft | 539 kts | 100° |
| 2026-05-05 03:09 | 34.81248 | 136.58576 | 33221 ft | 541 kts | 100° |
| 2026-05-05 03:09 | 34.80678 | 136.67660 | 33191 ft | 544 kts | 100° |
| 2026-05-05 03:10 | 34.80096 | 136.76840 | 33189 ft | 545 kts | 100° |
| 2026-05-05 03:10 | 34.79506 | 136.86061 | 33177 ft | 547 kts | 101° |
| 2026-05-05 03:11 | 34.78907 | 136.95293 | 33200 ft | 549 kts | 101° |
| 2026-05-05 03:11 | 34.78303 | 137.04502 | 33204 ft | 550 kts | 101° |
| 2026-05-05 03:12 | 34.77688 | 137.13793 | 33195 ft | 551 kts | 101° |
| 2026-05-05 03:12 | 34.77065 | 137.23081 | 33176 ft | 550 kts | 101° |
| 2026-05-05 03:13 | 34.76437 | 137.32349 | 33198 ft | 550 kts | 101° |
| 2026-05-05 03:13 | 34.75804 | 137.41560 | 33223 ft | 550 kts | 101° |
| 2026-05-05 03:14 | 34.75159 | 137.50843 | 33210 ft | 551 kts | 101° |
| 2026-05-05 03:14 | 34.74508 | 137.60122 | 33210 ft | 551 kts | 101° |
| 2026-05-05 03:15 | 34.73851 | 137.69387 | 33210 ft | 551 kts | 101° |
| 2026-05-05 03:15 | 34.73190 | 137.78597 | 33205 ft | 550 kts | 102° |
| 2026-05-05 03:16 | 34.72519 | 137.87863 | 33213 ft | 550 kts | 102° |
| 2026-05-05 03:16 | 34.71841 | 137.97126 | 33056 ft | 552 kts | 102° |
| 2026-05-05 03:16 | 34.71498 | 138.01773 | 32800 ft | 553 kts | 101° |
| 2026-05-05 03:17 | 34.71280 | 138.06448 | 32530 ft | 555 kts | 97° |
| 2026-05-05 03:17 | 34.71258 | 138.11146 | 32292 ft | 557 kts | 95° |
| 2026-05-05 03:17 | 34.71318 | 138.15801 | 32055 ft | 559 kts | 94° |
| 2026-05-05 03:17 | 34.71402 | 138.20529 | 31806 ft | 560 kts | 94° |
| 2026-05-05 03:18 | 34.71476 | 138.25251 | 31388 ft | 558 kts | 94° |
| 2026-05-05 03:18 | 34.71526 | 138.29975 | 30744 ft | 559 kts | 94° |
| 2026-05-05 03:18 | 34.71554 | 138.34701 | 30060 ft | 559 kts | 94° |
| 2026-05-05 03:18 | 34.71569 | 138.39414 | 29458 ft | 554 kts | 94° |
| 2026-05-05 03:19 | 34.71583 | 138.48629 | 28410 ft | 543 kts | 94° |
| 2026-05-05 03:19 | 34.71589 | 138.53192 | 27877 ft | 538 kts | 94° |
| 2026-05-05 03:19 | 34.71583 | 138.57651 | 27350 ft | 530 kts | 94° |
| 2026-05-05 03:20 | 34.71581 | 138.62078 | 26829 ft | 519 kts | 93° |
| 2026-05-05 03:20 | 34.71592 | 138.66421 | 26339 ft | 510 kts | 92° |
| 2026-05-05 03:20 | 34.71604 | 138.70714 | 25850 ft | 506 kts | 92° |
| 2026-05-05 03:20 | 34.71600 | 138.74956 | 25347 ft | 497 kts | 92° |
| 2026-05-05 03:21 | 34.71610 | 138.79119 | 24853 ft | 487 kts | 92° |
| 2026-05-05 03:21 | 34.71600 | 138.83200 | 24349 ft | 478 kts | 92° |
| 2026-05-05 03:21 | 34.71578 | 138.87208 | 23848 ft | 470 kts | 92° |
| 2026-05-05 03:21 | 34.71554 | 138.91138 | 23292 ft | 461 kts | 92° |
| 2026-05-05 03:22 | 34.71531 | 138.94947 | 22796 ft | 455 kts | 92° |
| 2026-05-05 03:22 | 34.71504 | 138.98775 | 22319 ft | 450 kts | 91° |
| 2026-05-05 03:22 | 34.71482 | 139.02560 | 21866 ft | 445 kts | 91° |
| 2026-05-05 03:22 | 34.71464 | 139.06308 | 21415 ft | 441 kts | 91° |
| 2026-05-05 03:23 | 34.71444 | 139.10010 | 20976 ft | 436 kts | 90° |
| 2026-05-05 03:23 | 34.71419 | 139.13679 | 20533 ft | 431 kts | 90° |
| 2026-05-05 03:23 | 34.71393 | 139.17288 | 20099 ft | 426 kts | 90° |
| 2026-05-05 03:23 | 34.71366 | 139.20863 | 19671 ft | 421 kts | 89° |
| 2026-05-05 03:24 | 34.71516 | 139.24322 | 19209 ft | 410 kts | 79° |
| 2026-05-05 03:24 | 34.72207 | 139.27620 | 18785 ft | 396 kts | 68° |
| 2026-05-05 03:24 | 34.73122 | 139.30729 | 18353 ft | 386 kts | 67° |
| 2026-05-05 03:24 | 34.74023 | 139.33794 | 17912 ft | 384 kts | 67° |
| 2026-05-05 03:25 | 34.74910 | 139.36848 | 17501 ft | 381 kts | 68° |
| 2026-05-05 03:25 | 34.75778 | 139.39876 | 17097 ft | 379 kts | 68° |
| 2026-05-05 03:25 | 34.76636 | 139.42898 | 16692 ft | 377 kts | 68° |
| 2026-05-05 03:25 | 34.77484 | 139.45900 | 16301 ft | 374 kts | 68° |
| 2026-05-05 03:26 | 34.78323 | 139.48884 | 15917 ft | 371 kts | 68° |
| 2026-05-05 03:26 | 34.79145 | 139.51807 | 15532 ft | 369 kts | 68° |
| 2026-05-05 03:26 | 34.79968 | 139.54743 | 15170 ft | 365 kts | 68° |
| 2026-05-05 03:26 | 34.80783 | 139.57650 | 14774 ft | 361 kts | 68° |
| 2026-05-05 03:27 | 34.81807 | 139.60341 | 14552 ft | 341 kts | 52° |
| 2026-05-05 03:27 | 34.83279 | 139.62515 | 14222 ft | 327 kts | 44° |
| 2026-05-05 03:27 | 34.84803 | 139.64514 | 13858 ft | 317 kts | 43° |
| 2026-05-05 03:27 | 34.86287 | 139.66432 | 13640 ft | 304 kts | 43° |
| 2026-05-05 03:28 | 34.87705 | 139.68264 | 13450 ft | 294 kts | 43° |
| 2026-05-05 03:28 | 34.89083 | 139.70043 | 13349 ft | 285 kts | 42° |
| 2026-05-05 03:28 | 34.90413 | 139.71761 | 13105 ft | 281 kts | 42° |
| 2026-05-05 03:28 | 34.91756 | 139.73492 | 12779 ft | 279 kts | 42° |
| 2026-05-05 03:29 | 34.93086 | 139.75202 | 12391 ft | 278 kts | 42° |
| 2026-05-05 03:29 | 34.94413 | 139.76914 | 11993 ft | 277 kts | 42° |
| 2026-05-05 03:29 | 34.95731 | 139.78618 | 11613 ft | 275 kts | 42° |
| 2026-05-05 03:29 | 34.97043 | 139.80310 | 11223 ft | 274 kts | 43° |
| 2026-05-05 03:30 | 34.98362 | 139.81973 | 10852 ft | 270 kts | 37° |
| 2026-05-05 03:30 | 34.99986 | 139.82953 | 10384 ft | 259 kts | 3° |
| 2026-05-05 03:30 | 35.01739 | 139.82856 | 9983 ft | 255 kts | 352° |
| 2026-05-05 03:30 | 35.03509 | 139.82642 | 9568 ft | 255 kts | 353° |
| 2026-05-05 03:31 | 35.05271 | 139.82456 | 9196 ft | 253 kts | 353° |
| 2026-05-05 03:31 | 35.07017 | 139.82297 | 8799 ft | 252 kts | 354° |
| 2026-05-05 03:31 | 35.08765 | 139.82155 | 8404 ft | 251 kts | 355° |
| 2026-05-05 03:31 | 35.10507 | 139.82025 | 8033 ft | 250 kts | 355° |
| 2026-05-05 03:32 | 35.12235 | 139.81905 | 7687 ft | 249 kts | 355° |
| 2026-05-05 03:32 | 35.13978 | 139.81788 | 7360 ft | 251 kts | 355° |
| 2026-05-05 03:32 | 35.15722 | 139.81674 | 7072 ft | 251 kts | 356° |
| 2026-05-05 03:32 | 35.17441 | 139.81564 | 6787 ft | 251 kts | 356° |
| 2026-05-05 03:33 | 35.19168 | 139.81453 | 6484 ft | 246 kts | 356° |
| 2026-05-05 03:33 | 35.20870 | 139.81310 | 6188 ft | 245 kts | 350° |
| 2026-05-05 03:33 | 35.22510 | 139.80839 | 5899 ft | 239 kts | 344° |
| 2026-05-05 03:33 | 35.24087 | 139.80297 | 5646 ft | 231 kts | 344° |
| 2026-05-05 03:34 | 35.25593 | 139.79790 | 5392 ft | 220 kts | 344° |
| 2026-05-05 03:34 | 35.27033 | 139.79319 | 5144 ft | 208 kts | 345° |
| 2026-05-05 03:34 | 35.28388 | 139.78882 | 4924 ft | 195 kts | 345° |
| 2026-05-05 03:34 | 35.29662 | 139.78473 | 4689 ft | 186 kts | 343° |
| 2026-05-05 03:35 | 35.30882 | 139.78085 | 4481 ft | 182 kts | 346° |
| 2026-05-05 03:35 | 35.32119 | 139.78240 | 4267 ft | 184 kts | 26° |
| 2026-05-05 03:35 | 35.33211 | 139.79069 | 4110 ft | 187 kts | 31° |
| 2026-05-05 03:35 | 35.34326 | 139.79935 | 3895 ft | 192 kts | 31° |
| 2026-05-05 03:36 | 35.35448 | 139.80808 | 3633 ft | 189 kts | 32° |
| 2026-05-05 03:36 | 35.36554 | 139.81669 | 3332 ft | 188 kts | 32° |
| 2026-05-05 03:36 | 35.37633 | 139.82506 | 3091 ft | 184 kts | 32° |
| 2026-05-05 03:36 | 35.38695 | 139.83329 | 2877 ft | 178 kts | 33° |
| 2026-05-05 03:37 | 35.39720 | 139.84125 | 2696 ft | 170 kts | 33° |
| 2026-05-05 03:37 | 35.40681 | 139.84871 | 2534 ft | 162 kts | 32° |
| 2026-05-05 03:37 | 35.41764 | 139.85201 | 2406 ft | 164 kts | 0° |
| 2026-05-05 03:37 | 35.42900 | 139.85168 | 2268 ft | 163 kts | 3° |
| 2026-05-05 03:38 | 35.44030 | 139.85139 | 2157 ft | 163 kts | 356° |
| 2026-05-05 03:38 | 35.45095 | 139.84607 | 1961 ft | 169 kts | 333° |
| 2026-05-05 03:38 | 35.46127 | 139.83901 | 1726 ft | 170 kts | 334° |
| 2026-05-05 03:38 | 35.47123 | 139.83207 | 1493 ft | 163 kts | 333° |
| 2026-05-05 03:39 | 35.48074 | 139.82532 | 1270 ft | 155 kts | 333° |
| 2026-05-05 03:39 | 35.48995 | 139.81866 | 1084 ft | 153 kts | 331° |
| 2026-05-05 03:39 | 35.49928 | 139.81181 | 839 ft | 158 kts | 332° |
| 2026-05-05 03:39 | 35.50879 | 139.80539 | 657 ft | 154 kts | 334° |
| 2026-05-05 03:40 | 35.51791 | 139.79891 | 483 ft | 150 kts | 333° |
| 2026-05-05 03:40 | 35.52686 | 139.79258 | 284 ft | 146 kts | 332° |
| 2026-05-05 03:40 | 35.53559 | 139.78634 | 91 ft | 145 kts | 334° |
| 2026-05-05 03:40 | 35.54400 | 139.78042 | 20 ft | 122 kts | 328° |
| 2026-05-05 03:41 | 35.54894 | 139.77696 | 22 ft | 32 kts | 331° |
| 2026-05-05 03:41 | 35.55065 | 139.77633 | 19 ft | 21 kts | 356° |
| 2026-05-05 03:41 | 35.55168 | 139.77641 | 20 ft | 12 kts | 30° |
| 2026-05-05 03:41 | 35.55184 | 139.77729 | 21 ft | 12 kts | 117° |
| 2026-05-05 03:42 | 35.55120 | 139.77786 | 21 ft | 11 kts | 150° |
| 2026-05-05 03:42 | 35.55053 | 139.77833 | 22 ft | 11 kts | 150° |
| 2026-05-05 03:42 | 35.54980 | 139.77885 | 21 ft | 14 kts | 150° |
| 2026-05-05 03:42 | 35.54886 | 139.77952 | 23 ft | 18 kts | 150° |
| 2026-05-05 03:43 | 35.54774 | 139.78031 | 22 ft | 19 kts | 150° |
| 2026-05-05 03:43 | 35.54665 | 139.78109 | 22 ft | 18 kts | 150° |
| 2026-05-05 03:43 | 35.54558 | 139.78184 | 21 ft | 17 kts | 150° |
| 2026-05-05 03:43 | 35.54455 | 139.78258 | 20 ft | 17 kts | 149° |
| 2026-05-05 03:44 | 35.54356 | 139.78328 | 20 ft | 16 kts | 150° |
| 2026-05-05 03:44 | 35.54272 | 139.78387 | 21 ft | 12 kts | 150° |
| 2026-05-05 03:44 | 35.54254 | 139.78473 | 22 ft | 12 kts | 63° |
| 2026-05-05 03:44 | 35.54294 | 139.78559 | 29 ft | 11 kts | 60° |
| 2026-05-05 03:45 | 35.54334 | 139.78640 | 29 ft | 10 kts | 48° |
| 2026-05-05 03:45 | 35.54393 | 139.78634 | 27 ft | 10 kts | 332° |
| 2026-05-05 03:45 | 35.54438 | 139.78604 | 26 ft | 7 kts | 332° |
| 2026-05-05 03:45 | 35.54468 | 139.78584 | 29 ft | 3 kts | 332° |
| 2026-05-05 03:46 | 35.54474 | 139.78580 | 26 ft | 0 kts | 332° |